sensor_id;sensor_type;location;lat;lon;timestamp;P1;durP1;ratioP1;P2;durP2;ratioP2
2434;SDS011;1228;51.022;6.764;2023-06-14T00:01:34;10.00;;;9.30;;
2434;SDS011;1228;51.022;6.764;2023-06-14T00:04:00;9.57;;;8.87;;
2434;SDS011;1228;51.022;6.764;2023-06-14T00:06:26;9.77;;;9.03;;
2434;SDS011;1228;51.022;6.764;2023-06-14T00:08:53;11.43;;;8.67;;
2434;SDS011;1228;51.022;6.764;2023-06-14T00:11:19;9.13;;;8.43;;
2434;SDS011;1228;51.022;6.764;2023-06-14T00:13:45;8.17;;;7.43;;
2434;SDS011;1228;51.022;6.764;2023-06-14T00:16:11;8.07;;;7.40;;
2434;SDS011;1228;51.022;6.764;2023-06-14T00:18:37;10.80;;;8.32;;
2434;SDS011;1228;51.022;6.764;2023-06-14T00:21:03;13.10;;;8.35;;
2434;SDS011;1228;51.022;6.764;2023-06-14T00:23:29;10.50;;;8.67;;
2434;SDS011;1228;51.022;6.764;2023-06-14T00:25:55;9.48;;;8.68;;
2434;SDS011;1228;51.022;6.764;2023-06-14T00:28:20;9.60;;;8.47;;
2434;SDS011;1228;51.022;6.764;2023-06-14T00:30:46;7.93;;;7.23;;
2434;SDS011;1228;51.022;6.764;2023-06-14T00:33:12;8.57;;;7.77;;
2434;SDS011;1228;51.022;6.764;2023-06-14T00:35:37;9.13;;;8.43;;
2434;SDS011;1228;51.022;6.764;2023-06-14T00:38:03;10.00;;;9.03;;
2434;SDS011;1228;51.022;6.764;2023-06-14T00:40:29;11.93;;;11.07;;
2434;SDS011;1228;51.022;6.764;2023-06-14T00:42:54;8.30;;;7.23;;
2434;SDS011;1228;51.022;6.764;2023-06-14T00:45:20;8.50;;;7.87;;
2434;SDS011;1228;51.022;6.764;2023-06-14T00:47:46;9.10;;;8.27;;
2434;SDS011;1228;51.022;6.764;2023-06-14T00:50:13;8.93;;;8.13;;
2434;SDS011;1228;51.022;6.764;2023-06-14T00:52:39;8.97;;;8.27;;
2434;SDS011;1228;51.022;6.764;2023-06-14T00:55:05;9.13;;;8.33;;
2434;SDS011;1228;51.022;6.764;2023-06-14T00:57:31;9.23;;;8.47;;
2434;SDS011;1228;51.022;6.764;2023-06-14T00:59:57;10.07;;;8.57;;
2434;SDS011;1228;51.022;6.764;2023-06-14T01:02:22;8.30;;;7.70;;
2434;SDS011;1228;51.022;6.764;2023-06-14T01:04:49;9.20;;;6.97;;
2434;SDS011;1228;51.022;6.764;2023-06-14T01:15:57;8.80;;;8.07;;
2434;SDS011;1228;51.022;6.764;2023-06-14T01:18:23;9.40;;;8.50;;
2434;SDS011;1228;51.022;6.764;2023-06-14T01:20:51;9.50;;;8.73;;
2434;SDS011;1228;51.022;6.764;2023-06-14T01:23:18;9.23;;;8.63;;
2434;SDS011;1228;51.022;6.764;2023-06-14T01:25:45;8.67;;;7.97;;
2434;SDS011;1228;51.022;6.764;2023-06-14T01:28:12;8.80;;;7.97;;
2434;SDS011;1228;51.022;6.764;2023-06-14T01:30:41;8.80;;;7.33;;
2434;SDS011;1228;51.022;6.764;2023-06-14T01:33:13;9.50;;;8.50;;
2434;SDS011;1228;51.022;6.764;2023-06-14T01:35:50;10.00;;;8.40;;
2434;SDS011;1228;51.022;6.764;2023-06-14T01:38:20;10.03;;;9.13;;
2434;SDS011;1228;51.022;6.764;2023-06-14T01:40:48;10.47;;;8.57;;
2434;SDS011;1228;51.022;6.764;2023-06-14T01:43:16;11.60;;;9.23;;
2434;SDS011;1228;51.022;6.764;2023-06-14T01:45:42;10.10;;;8.73;;
2434;SDS011;1228;51.022;6.764;2023-06-14T01:48:10;8.97;;;8.10;;
2434;SDS011;1228;51.022;6.764;2023-06-14T01:50:37;8.60;;;7.80;;
2434;SDS011;1228;51.022;6.764;2023-06-14T01:53:03;8.50;;;7.83;;
2434;SDS011;1228;51.022;6.764;2023-06-14T01:55:32;8.93;;;8.13;;
2434;SDS011;1228;51.022;6.764;2023-06-14T01:58:02;8.57;;;7.87;;
2434;SDS011;1228;51.022;6.764;2023-06-14T02:00:28;9.30;;;8.53;;
2434;SDS011;1228;51.022;6.764;2023-06-14T02:02:54;8.83;;;8.17;;
2434;SDS011;1228;51.022;6.764;2023-06-14T02:05:20;9.90;;;8.93;;
2434;SDS011;1228;51.022;6.764;2023-06-14T02:07:46;11.27;;;10.17;;
2434;SDS011;1228;51.022;6.764;2023-06-14T02:10:12;11.33;;;10.43;;
2434;SDS011;1228;51.022;6.764;2023-06-14T02:12:39;11.50;;;8.77;;
2434;SDS011;1228;51.022;6.764;2023-06-14T02:15:05;9.57;;;8.77;;
2434;SDS011;1228;51.022;6.764;2023-06-14T02:17:32;10.73;;;9.73;;
2434;SDS011;1228;51.022;6.764;2023-06-14T02:19:57;11.20;;;9.90;;
2434;SDS011;1228;51.022;6.764;2023-06-14T02:22:23;10.97;;;10.23;;
2434;SDS011;1228;51.022;6.764;2023-06-14T02:24:48;11.20;;;10.20;;
2434;SDS011;1228;51.022;6.764;2023-06-14T02:27:15;9.47;;;8.67;;
2434;SDS011;1228;51.022;6.764;2023-06-14T02:29:40;9.40;;;8.60;;
2434;SDS011;1228;51.022;6.764;2023-06-14T02:32:06;9.10;;;8.20;;
2434;SDS011;1228;51.022;6.764;2023-06-14T02:34:32;10.10;;;9.07;;
2434;SDS011;1228;51.022;6.764;2023-06-14T02:36:59;9.57;;;8.87;;
2434;SDS011;1228;51.022;6.764;2023-06-14T02:39:25;10.37;;;9.57;;
2434;SDS011;1228;51.022;6.764;2023-06-14T02:41:51;9.43;;;8.57;;
2434;SDS011;1228;51.022;6.764;2023-06-14T02:44:23;9.93;;;9.03;;
2434;SDS011;1228;51.022;6.764;2023-06-14T02:46:50;9.90;;;9.00;;
2434;SDS011;1228;51.022;6.764;2023-06-14T02:49:16;9.60;;;8.60;;
2434;SDS011;1228;51.022;6.764;2023-06-14T02:51:41;8.70;;;7.97;;
2434;SDS011;1228;51.022;6.764;2023-06-14T02:54:07;9.50;;;8.70;;
2434;SDS011;1228;51.022;6.764;2023-06-14T02:56:32;9.13;;;8.03;;
2434;SDS011;1228;51.022;6.764;2023-06-14T02:58:58;9.70;;;8.83;;
2434;SDS011;1228;51.022;6.764;2023-06-14T03:01:25;9.67;;;8.87;;
2434;SDS011;1228;51.022;6.764;2023-06-14T03:03:59;9.83;;;8.93;;
2434;SDS011;1228;51.022;6.764;2023-06-14T03:06:27;10.47;;;9.63;;
2434;SDS011;1228;51.022;6.764;2023-06-14T03:08:55;10.93;;;9.53;;
2434;SDS011;1228;51.022;6.764;2023-06-14T03:11:29;9.90;;;8.90;;
2434;SDS011;1228;51.022;6.764;2023-06-14T03:13:55;10.33;;;9.23;;
2434;SDS011;1228;51.022;6.764;2023-06-14T03:16:22;10.10;;;9.20;;
2434;SDS011;1228;51.022;6.764;2023-06-14T03:18:49;9.67;;;8.83;;
2434;SDS011;1228;51.022;6.764;2023-06-14T03:21:16;12.17;;;8.20;;
2434;SDS011;1228;51.022;6.764;2023-06-14T03:23:42;9.23;;;8.53;;
2434;SDS011;1228;51.022;6.764;2023-06-14T03:26:08;10.53;;;9.60;;
2434;SDS011;1228;51.022;6.764;2023-06-14T03:28:34;9.40;;;8.60;;
2434;SDS011;1228;51.022;6.764;2023-06-14T03:30:59;9.83;;;8.93;;
2434;SDS011;1228;51.022;6.764;2023-06-14T03:33:26;10.00;;;8.97;;
2434;SDS011;1228;51.022;6.764;2023-06-14T03:35:52;8.73;;;7.97;;
2434;SDS011;1228;51.022;6.764;2023-06-14T03:38:18;9.70;;;8.77;;
2434;SDS011;1228;51.022;6.764;2023-06-14T03:40:43;9.47;;;8.63;;
2434;SDS011;1228;51.022;6.764;2023-06-14T03:43:09;10.30;;;9.40;;
2434;SDS011;1228;51.022;6.764;2023-06-14T03:45:35;9.47;;;8.53;;
2434;SDS011;1228;51.022;6.764;2023-06-14T03:48:01;8.60;;;7.80;;
2434;SDS011;1228;51.022;6.764;2023-06-14T03:50:27;10.77;;;9.83;;
2434;SDS011;1228;51.022;6.764;2023-06-14T03:52:53;9.17;;;8.47;;
2434;SDS011;1228;51.022;6.764;2023-06-14T03:55:19;9.80;;;8.80;;
2434;SDS011;1228;51.022;6.764;2023-06-14T03:57:45;10.90;;;9.87;;
2434;SDS011;1228;51.022;6.764;2023-06-14T04:00:10;10.20;;;9.27;;
2434;SDS011;1228;51.022;6.764;2023-06-14T04:02:37;10.07;;;9.03;;
2434;SDS011;1228;51.022;6.764;2023-06-14T04:05:03;10.17;;;9.37;;
2434;SDS011;1228;51.022;6.764;2023-06-14T04:07:28;10.47;;;9.57;;
2434;SDS011;1228;51.022;6.764;2023-06-14T04:09:55;10.00;;;9.10;;
2434;SDS011;1228;51.022;6.764;2023-06-14T04:12:20;9.67;;;8.83;;
2434;SDS011;1228;51.022;6.764;2023-06-14T04:14:46;9.30;;;8.40;;
2434;SDS011;1228;51.022;6.764;2023-06-14T04:17:11;8.70;;;7.73;;
2434;SDS011;1228;51.022;6.764;2023-06-14T04:19:37;10.37;;;9.47;;
2434;SDS011;1228;51.022;6.764;2023-06-14T04:22:03;11.23;;;9.83;;
2434;SDS011;1228;51.022;6.764;2023-06-14T04:24:28;10.50;;;9.40;;
2434;SDS011;1228;51.022;6.764;2023-06-14T04:26:57;10.23;;;9.33;;
2434;SDS011;1228;51.022;6.764;2023-06-14T04:29:28;10.07;;;9.10;;
2434;SDS011;1228;51.022;6.764;2023-06-14T04:31:54;12.07;;;8.97;;
2434;SDS011;1228;51.022;6.764;2023-06-14T04:34:23;10.23;;;9.23;;
2434;SDS011;1228;51.022;6.764;2023-06-14T04:36:55;13.00;;;9.40;;
2434;SDS011;1228;51.022;6.764;2023-06-14T04:39:21;13.17;;;12.17;;
2434;SDS011;1228;51.022;6.764;2023-06-14T04:41:47;8.93;;;8.20;;
2434;SDS011;1228;51.022;6.764;2023-06-14T04:44:16;11.40;;;9.80;;
2434;SDS011;1228;51.022;6.764;2023-06-14T04:46:43;10.83;;;9.83;;
2434;SDS011;1228;51.022;6.764;2023-06-14T04:49:15;10.37;;;9.60;;
2434;SDS011;1228;51.022;6.764;2023-06-14T04:51:42;8.25;;;7.63;;
2434;SDS011;1228;51.022;6.764;2023-06-14T04:54:09;8.43;;;7.72;;
2434;SDS011;1228;51.022;6.764;2023-06-14T04:56:38;10.40;;;9.48;;
2434;SDS011;1228;51.022;6.764;2023-06-14T04:59:03;9.73;;;8.88;;
2434;SDS011;1228;51.022;6.764;2023-06-14T05:01:30;9.80;;;8.35;;
2434;SDS011;1228;51.022;6.764;2023-06-14T05:03:57;8.30;;;7.57;;
2434;SDS011;1228;51.022;6.764;2023-06-14T05:06:23;8.95;;;8.10;;
2434;SDS011;1228;51.022;6.764;2023-06-14T05:08:48;8.38;;;7.57;;
2434;SDS011;1228;51.022;6.764;2023-06-14T05:11:14;7.75;;;7.13;;
2434;SDS011;1228;51.022;6.764;2023-06-14T05:13:41;7.65;;;6.93;;
2434;SDS011;1228;51.022;6.764;2023-06-14T05:16:08;8.18;;;7.38;;
2434;SDS011;1228;51.022;6.764;2023-06-14T05:18:34;8.38;;;7.38;;
2434;SDS011;1228;51.022;6.764;2023-06-14T05:21:00;8.48;;;7.63;;
2434;SDS011;1228;51.022;6.764;2023-06-14T05:23:26;11.35;;;8.55;;
2434;SDS011;1228;51.022;6.764;2023-06-14T05:25:52;9.27;;;8.32;;
2434;SDS011;1228;51.022;6.764;2023-06-14T05:28:18;9.35;;;8.40;;
2434;SDS011;1228;51.022;6.764;2023-06-14T05:30:43;10.57;;;8.60;;
2434;SDS011;1228;51.022;6.764;2023-06-14T05:33:09;8.57;;;7.57;;
2434;SDS011;1228;51.022;6.764;2023-06-14T05:35:34;8.48;;;7.00;;
2434;SDS011;1228;51.022;6.764;2023-06-14T05:38:00;8.88;;;7.30;;
2434;SDS011;1228;51.022;6.764;2023-06-14T05:40:26;8.32;;;7.57;;
2434;SDS011;1228;51.022;6.764;2023-06-14T05:42:51;13.45;;;7.18;;
2434;SDS011;1228;51.022;6.764;2023-06-14T05:45:17;7.50;;;6.88;;
2434;SDS011;1228;51.022;6.764;2023-06-14T05:47:43;8.65;;;8.02;;
2434;SDS011;1228;51.022;6.764;2023-06-14T05:50:08;7.60;;;6.80;;
2434;SDS011;1228;51.022;6.764;2023-06-14T05:52:34;8.75;;;5.85;;
2434;SDS011;1228;51.022;6.764;2023-06-14T05:55:01;8.05;;;5.45;;
2434;SDS011;1228;51.022;6.764;2023-06-14T05:57:28;8.45;;;5.25;;
2434;SDS011;1228;51.022;6.764;2023-06-14T05:59:54;9.68;;;5.47;;
2434;SDS011;1228;51.022;6.764;2023-06-14T06:02:19;5.57;;;5.18;;
2434;SDS011;1228;51.022;6.764;2023-06-14T06:04:45;5.80;;;5.10;;
2434;SDS011;1228;51.022;6.764;2023-06-14T06:07:11;7.93;;;6.15;;
2434;SDS011;1228;51.022;6.764;2023-06-14T06:09:36;5.28;;;4.70;;
2434;SDS011;1228;51.022;6.764;2023-06-14T06:12:02;6.47;;;5.88;;
2434;SDS011;1228;51.022;6.764;2023-06-14T06:14:30;6.57;;;6.07;;
2434;SDS011;1228;51.022;6.764;2023-06-14T06:16:55;6.22;;;5.32;;
2434;SDS011;1228;51.022;6.764;2023-06-14T06:19:21;9.15;;;6.28;;
2434;SDS011;1228;51.022;6.764;2023-06-14T06:21:47;6.53;;;4.75;;
2434;SDS011;1228;51.022;6.764;2023-06-14T06:24:12;8.35;;;5.55;;
2434;SDS011;1228;51.022;6.764;2023-06-14T06:26:38;5.88;;;5.25;;
2434;SDS011;1228;51.022;6.764;2023-06-14T06:29:04;6.82;;;4.85;;
2434;SDS011;1228;51.022;6.764;2023-06-14T06:31:30;6.25;;;5.10;;
2434;SDS011;1228;51.022;6.764;2023-06-14T06:33:56;9.05;;;5.18;;
2434;SDS011;1228;51.022;6.764;2023-06-14T06:36:22;6.82;;;5.63;;
2434;SDS011;1228;51.022;6.764;2023-06-14T06:38:48;5.30;;;4.90;;
2434;SDS011;1228;51.022;6.764;2023-06-14T06:41:13;6.05;;;5.45;;
2434;SDS011;1228;51.022;6.764;2023-06-14T06:43:39;9.35;;;8.63;;
2434;SDS011;1228;51.022;6.764;2023-06-14T06:46:04;7.95;;;5.88;;
2434;SDS011;1228;51.022;6.764;2023-06-14T06:48:30;5.75;;;5.35;;
2434;SDS011;1228;51.022;6.764;2023-06-14T06:50:56;5.63;;;5.20;;
2434;SDS011;1228;51.022;6.764;2023-06-14T06:53:21;4.78;;;4.38;;
2434;SDS011;1228;51.022;6.764;2023-06-14T06:55:48;9.27;;;5.00;;
2434;SDS011;1228;51.022;6.764;2023-06-14T06:58:13;4.55;;;4.13;;
2434;SDS011;1228;51.022;6.764;2023-06-14T07:00:39;7.07;;;4.70;;
2434;SDS011;1228;51.022;6.764;2023-06-14T07:03:05;4.57;;;4.20;;
2434;SDS011;1228;51.022;6.764;2023-06-14T07:05:30;5.60;;;5.20;;
2434;SDS011;1228;51.022;6.764;2023-06-14T07:07:57;6.25;;;5.40;;
2434;SDS011;1228;51.022;6.764;2023-06-14T07:10:22;6.90;;;5.53;;
2434;SDS011;1228;51.022;6.764;2023-06-14T07:12:49;5.10;;;4.60;;
2434;SDS011;1228;51.022;6.764;2023-06-14T07:15:15;5.68;;;4.72;;
2434;SDS011;1228;51.022;6.764;2023-06-14T07:17:41;5.43;;;4.60;;
2434;SDS011;1228;51.022;6.764;2023-06-14T07:20:07;7.55;;;4.53;;
2434;SDS011;1228;51.022;6.764;2023-06-14T07:22:37;5.55;;;4.55;;
2434;SDS011;1228;51.022;6.764;2023-06-14T07:25:04;4.93;;;4.47;;
2434;SDS011;1228;51.022;6.764;2023-06-14T07:27:30;4.65;;;4.35;;
2434;SDS011;1228;51.022;6.764;2023-06-14T07:29:55;5.47;;;4.95;;
2434;SDS011;1228;51.022;6.764;2023-06-14T07:32:21;4.55;;;3.70;;
2434;SDS011;1228;51.022;6.764;2023-06-14T07:34:46;4.38;;;3.65;;
2434;SDS011;1228;51.022;6.764;2023-06-14T07:37:12;4.38;;;3.97;;
2434;SDS011;1228;51.022;6.764;2023-06-14T07:39:37;4.32;;;3.92;;
2434;SDS011;1228;51.022;6.764;2023-06-14T07:42:03;4.97;;;3.63;;
2434;SDS011;1228;51.022;6.764;2023-06-14T07:44:30;4.03;;;3.67;;
2434;SDS011;1228;51.022;6.764;2023-06-14T07:46:56;5.20;;;3.78;;
2434;SDS011;1228;51.022;6.764;2023-06-14T07:49:24;3.65;;;3.35;;
2434;SDS011;1228;51.022;6.764;2023-06-14T07:51:49;3.90;;;3.60;;
2434;SDS011;1228;51.022;6.764;2023-06-14T07:54:15;6.63;;;3.20;;
2434;SDS011;1228;51.022;6.764;2023-06-14T07:56:41;3.60;;;3.30;;
2434;SDS011;1228;51.022;6.764;2023-06-14T07:59:07;4.07;;;3.78;;
2434;SDS011;1228;51.022;6.764;2023-06-14T08:01:32;4.03;;;3.72;;
2434;SDS011;1228;51.022;6.764;2023-06-14T08:03:59;3.63;;;3.33;;
2434;SDS011;1228;51.022;6.764;2023-06-14T08:06:24;3.95;;;3.30;;
2434;SDS011;1228;51.022;6.764;2023-06-14T08:08:51;4.38;;;3.30;;
2434;SDS011;1228;51.022;6.764;2023-06-14T08:11:16;3.67;;;3.33;;
2434;SDS011;1228;51.022;6.764;2023-06-14T08:13:42;6.60;;;3.30;;
2434;SDS011;1228;51.022;6.764;2023-06-14T08:16:07;4.13;;;3.13;;
2434;SDS011;1228;51.022;6.764;2023-06-14T08:18:33;4.97;;;3.53;;
2434;SDS011;1228;51.022;6.764;2023-06-14T08:20:59;3.30;;;3.10;;
2434;SDS011;1228;51.022;6.764;2023-06-14T08:23:24;3.25;;;3.05;;
2434;SDS011;1228;51.022;6.764;2023-06-14T08:25:50;4.35;;;2.40;;
2434;SDS011;1228;51.022;6.764;2023-06-14T08:28:16;3.17;;;2.90;;
2434;SDS011;1228;51.022;6.764;2023-06-14T08:30:42;3.00;;;2.80;;
2434;SDS011;1228;51.022;6.764;2023-06-14T08:33:07;3.30;;;3.00;;
2434;SDS011;1228;51.022;6.764;2023-06-14T08:35:33;3.63;;;3.38;;
2434;SDS011;1228;51.022;6.764;2023-06-14T08:38:02;4.60;;;4.18;;
2434;SDS011;1228;51.022;6.764;2023-06-14T08:40:28;3.63;;;3.42;;
2434;SDS011;1228;51.022;6.764;2023-06-14T08:42:55;3.90;;;3.60;;
2434;SDS011;1228;51.022;6.764;2023-06-14T08:45:22;4.18;;;3.88;;
2434;SDS011;1228;51.022;6.764;2023-06-14T08:47:49;3.20;;;3.00;;
2434;SDS011;1228;51.022;6.764;2023-06-14T08:50:22;4.47;;;3.20;;
2434;SDS011;1228;51.022;6.764;2023-06-14T08:52:51;3.17;;;2.97;;
2434;SDS011;1228;51.022;6.764;2023-06-14T08:55:19;4.13;;;3.47;;
2434;SDS011;1228;51.022;6.764;2023-06-14T08:57:51;3.88;;;3.58;;
2434;SDS011;1228;51.022;6.764;2023-06-14T09:00:18;3.63;;;3.40;;
2434;SDS011;1228;51.022;6.764;2023-06-14T09:02:45;3.10;;;2.90;;
2434;SDS011;1228;51.022;6.764;2023-06-14T09:05:11;3.03;;;2.83;;
2434;SDS011;1228;51.022;6.764;2023-06-14T09:07:38;3.08;;;2.88;;
2434;SDS011;1228;51.022;6.764;2023-06-14T09:10:06;3.38;;;3.08;;
2434;SDS011;1228;51.022;6.764;2023-06-14T09:12:42;3.88;;;3.00;;
2434;SDS011;1228;51.022;6.764;2023-06-14T09:15:08;4.30;;;3.97;;
2434;SDS011;1228;51.022;6.764;2023-06-14T09:17:35;2.95;;;2.75;;
2434;SDS011;1228;51.022;6.764;2023-06-14T09:20:04;3.63;;;3.33;;
2434;SDS011;1228;51.022;6.764;2023-06-14T09:22:32;3.40;;;3.13;;
2434;SDS011;1228;51.022;6.764;2023-06-14T09:24:58;3.83;;;2.70;;
2434;SDS011;1228;51.022;6.764;2023-06-14T09:27:28;3.20;;;2.90;;
2434;SDS011;1228;51.022;6.764;2023-06-14T09:29:54;2.92;;;2.72;;
2434;SDS011;1228;51.022;6.764;2023-06-14T09:32:20;3.17;;;2.90;;
2434;SDS011;1228;51.022;6.764;2023-06-14T09:34:46;3.15;;;2.95;;
2434;SDS011;1228;51.022;6.764;2023-06-14T09:37:12;3.30;;;3.00;;
2434;SDS011;1228;51.022;6.764;2023-06-14T09:39:50;3.97;;;3.67;;
2434;SDS011;1228;51.022;6.764;2023-06-14T09:42:17;4.00;;;3.80;;
2434;SDS011;1228;51.022;6.764;2023-06-14T09:44:45;3.80;;;3.50;;
2434;SDS011;1228;51.022;6.764;2023-06-14T09:47:16;3.10;;;2.88;;
2434;SDS011;1228;51.022;6.764;2023-06-14T09:49:42;3.45;;;3.08;;
2434;SDS011;1228;51.022;6.764;2023-06-14T09:52:13;4.28;;;3.08;;
2434;SDS011;1228;51.022;6.764;2023-06-14T09:54:43;3.08;;;2.78;;
2434;SDS011;1228;51.022;6.764;2023-06-14T09:57:14;2.95;;;2.75;;
2434;SDS011;1228;51.022;6.764;2023-06-14T09:59:44;2.72;;;2.53;;
2434;SDS011;1228;51.022;6.764;2023-06-14T10:07:42;2.92;;;2.72;;
2434;SDS011;1228;51.022;6.764;2023-06-14T10:10:13;3.00;;;2.70;;
2434;SDS011;1228;51.022;6.764;2023-06-14T10:12:39;3.25;;;2.60;;
2434;SDS011;1228;51.022;6.764;2023-06-14T10:15:05;2.75;;;2.60;;
2434;SDS011;1228;51.022;6.764;2023-06-14T10:17:42;3.05;;;2.80;;
2434;SDS011;1228;51.022;6.764;2023-06-14T10:22:56;3.25;;;3.05;;
2434;SDS011;1228;51.022;6.764;2023-06-14T10:25:29;3.00;;;2.80;;
2434;SDS011;1228;51.022;6.764;2023-06-14T10:28:02;3.25;;;2.80;;
2434;SDS011;1228;51.022;6.764;2023-06-14T10:31:05;4.35;;;2.83;;
2434;SDS011;1228;51.022;6.764;2023-06-14T10:33:33;5.18;;;2.83;;
2434;SDS011;1228;51.022;6.764;2023-06-14T10:38:36;2.75;;;2.55;;
2434;SDS011;1228;51.022;6.764;2023-06-14T10:41:02;3.20;;;2.90;;
2434;SDS011;1228;51.022;6.764;2023-06-14T10:43:30;3.13;;;2.45;;
2434;SDS011;1228;51.022;6.764;2023-06-14T10:46:13;2.97;;;2.78;;
2434;SDS011;1228;51.022;6.764;2023-06-14T10:48:48;3.42;;;3.13;;
2434;SDS011;1228;51.022;6.764;2023-06-14T10:51:22;3.17;;;2.95;;
2434;SDS011;1228;51.022;6.764;2023-06-14T10:53:49;2.97;;;2.78;;
2434;SDS011;1228;51.022;6.764;2023-06-14T10:56:23;4.35;;;2.70;;
2434;SDS011;1228;51.022;6.764;2023-06-14T10:58:51;5.03;;;2.83;;
2434;SDS011;1228;51.022;6.764;2023-06-14T11:01:19;3.05;;;2.85;;
2434;SDS011;1228;51.022;6.764;2023-06-14T11:03:56;3.33;;;3.10;;
2434;SDS011;1228;51.022;6.764;2023-06-14T11:06:31;3.05;;;2.75;;
2434;SDS011;1228;51.022;6.764;2023-06-14T11:11:46;8.95;;;3.17;;
2434;SDS011;1228;51.022;6.764;2023-06-14T11:14:13;2.75;;;2.55;;
2434;SDS011;1228;51.022;6.764;2023-06-14T11:16:38;4.88;;;3.25;;
2434;SDS011;1228;51.022;6.764;2023-06-14T11:19:05;4.57;;;3.30;;
2434;SDS011;1228;51.022;6.764;2023-06-14T11:21:34;3.13;;;2.85;;
2434;SDS011;1228;51.022;6.764;2023-06-14T11:24:09;3.45;;;3.10;;
2434;SDS011;1228;51.022;6.764;2023-06-14T11:26:37;2.75;;;2.60;;
2434;SDS011;1228;51.022;6.764;2023-06-14T11:29:03;4.28;;;3.08;;
2434;SDS011;1228;51.022;6.764;2023-06-14T11:31:29;4.78;;;3.20;;
2434;SDS011;1228;51.022;6.764;2023-06-14T11:33:58;3.85;;;3.55;;
2434;SDS011;1228;51.022;6.764;2023-06-14T11:36:28;3.35;;;2.90;;
2434;SDS011;1228;51.022;6.764;2023-06-14T11:38:59;3.10;;;2.90;;
2434;SDS011;1228;51.022;6.764;2023-06-14T11:41:36;5.32;;;4.97;;
2434;SDS011;1228;51.022;6.764;2023-06-14T11:44:06;4.20;;;3.30;;
2434;SDS011;1228;51.022;6.764;2023-06-14T11:46:32;5.72;;;3.97;;
2434;SDS011;1228;51.022;6.764;2023-06-14T11:48:59;2.83;;;2.63;;
2434;SDS011;1228;51.022;6.764;2023-06-14T11:51:28;3.33;;;3.13;;
2434;SDS011;1228;51.022;6.764;2023-06-14T11:53:57;3.10;;;2.90;;
2434;SDS011;1228;51.022;6.764;2023-06-14T11:56:23;3.22;;;2.80;;
2434;SDS011;1228;51.022;6.764;2023-06-14T11:58:50;4.43;;;3.42;;
2434;SDS011;1228;51.022;6.764;2023-06-14T12:01:17;3.42;;;3.13;;
2434;SDS011;1228;51.022;6.764;2023-06-14T12:03:49;3.03;;;2.83;;
2434;SDS011;1228;51.022;6.764;2023-06-14T12:06:16;3.97;;;3.05;;
2434;SDS011;1228;51.022;6.764;2023-06-14T12:08:50;3.33;;;3.13;;
2434;SDS011;1228;51.022;6.764;2023-06-14T12:11:17;4.15;;;3.10;;
2434;SDS011;1228;51.022;6.764;2023-06-14T12:13:43;3.45;;;3.25;;
2434;SDS011;1228;51.022;6.764;2023-06-14T12:16:09;4.05;;;2.97;;
2434;SDS011;1228;51.022;6.764;2023-06-14T12:18:37;3.28;;;3.08;;
2434;SDS011;1228;51.022;6.764;2023-06-14T12:21:04;3.58;;;3.38;;
2434;SDS011;1228;51.022;6.764;2023-06-14T12:26:14;3.95;;;3.65;;
2434;SDS011;1228;51.022;6.764;2023-06-14T12:28:41;4.65;;;3.38;;
2434;SDS011;1228;51.022;6.764;2023-06-14T12:31:11;3.28;;;2.97;;
2434;SDS011;1228;51.022;6.764;2023-06-14T12:33:38;3.58;;;2.90;;
2434;SDS011;1228;51.022;6.764;2023-06-14T12:36:05;3.10;;;2.72;;
2434;SDS011;1228;51.022;6.764;2023-06-14T12:38:32;2.78;;;2.58;;
2434;SDS011;1228;51.022;6.764;2023-06-14T12:40:58;3.30;;;3.10;;
2434;SDS011;1228;51.022;6.764;2023-06-14T12:43:24;3.55;;;3.35;;
2434;SDS011;1228;51.022;6.764;2023-06-14T12:45:49;2.92;;;2.70;;
2434;SDS011;1228;51.022;6.764;2023-06-14T12:48:15;3.03;;;2.83;;
2434;SDS011;1228;51.022;6.764;2023-06-14T12:50:41;3.78;;;3.47;;
2434;SDS011;1228;51.022;6.764;2023-06-14T12:53:07;3.88;;;3.47;;
2434;SDS011;1228;51.022;6.764;2023-06-14T12:55:35;4.47;;;2.70;;
2434;SDS011;1228;51.022;6.764;2023-06-14T12:58:01;4.88;;;2.72;;
2434;SDS011;1228;51.022;6.764;2023-06-14T13:00:26;3.58;;;3.38;;
2434;SDS011;1228;51.022;6.764;2023-06-14T13:02:52;4.20;;;4.00;;
2434;SDS011;1228;51.022;6.764;2023-06-14T13:05:19;4.68;;;4.47;;
2434;SDS011;1228;51.022;6.764;2023-06-14T13:07:44;4.07;;;3.78;;
2434;SDS011;1228;51.022;6.764;2023-06-14T13:10:10;4.50;;;4.10;;
2434;SDS011;1228;51.022;6.764;2023-06-14T13:12:36;3.15;;;2.95;;
2434;SDS011;1228;51.022;6.764;2023-06-14T13:15:01;3.78;;;3.53;;
2434;SDS011;1228;51.022;6.764;2023-06-14T13:17:27;3.78;;;3.55;;
2434;SDS011;1228;51.022;6.764;2023-06-14T13:19:53;3.50;;;3.30;;
2434;SDS011;1228;51.022;6.764;2023-06-14T13:22:18;4.10;;;2.83;;
2434;SDS011;1228;51.022;6.764;2023-06-14T13:24:44;3.35;;;3.15;;
2434;SDS011;1228;51.022;6.764;2023-06-14T13:27:10;5.63;;;5.03;;
2434;SDS011;1228;51.022;6.764;2023-06-14T13:29:38;4.00;;;3.80;;
2434;SDS011;1228;51.022;6.764;2023-06-14T13:32:03;3.35;;;3.15;;
2434;SDS011;1228;51.022;6.764;2023-06-14T13:34:29;3.58;;;3.38;;
2434;SDS011;1228;51.022;6.764;2023-06-14T13:36:56;3.97;;;3.78;;
2434;SDS011;1228;51.022;6.764;2023-06-14T13:39:25;3.10;;;2.90;;
2434;SDS011;1228;51.022;6.764;2023-06-14T13:41:51;4.05;;;3.85;;
2434;SDS011;1228;51.022;6.764;2023-06-14T13:44:17;3.20;;;3.00;;
2434;SDS011;1228;51.022;6.764;2023-06-14T13:46:46;4.65;;;4.20;;
2434;SDS011;1228;51.022;6.764;2023-06-14T13:49:11;3.05;;;2.83;;
2434;SDS011;1228;51.022;6.764;2023-06-14T13:51:40;3.72;;;3.50;;
2434;SDS011;1228;51.022;6.764;2023-06-14T13:54:06;3.30;;;3.03;;
2434;SDS011;1228;51.022;6.764;2023-06-14T13:56:32;3.08;;;2.95;;
2434;SDS011;1228;51.022;6.764;2023-06-14T13:58:57;3.30;;;3.10;;
2434;SDS011;1228;51.022;6.764;2023-06-14T14:01:24;4.47;;;4.28;;
2434;SDS011;1228;51.022;6.764;2023-06-14T14:03:50;3.20;;;3.10;;
2434;SDS011;1228;51.022;6.764;2023-06-14T14:06:16;2.83;;;2.63;;
2434;SDS011;1228;51.022;6.764;2023-06-14T14:08:42;3.40;;;3.20;;
2434;SDS011;1228;51.022;6.764;2023-06-14T14:11:09;2.97;;;2.78;;
2434;SDS011;1228;51.022;6.764;2023-06-14T14:13:35;4.07;;;3.88;;
2434;SDS011;1228;51.022;6.764;2023-06-14T14:16:04;3.00;;;2.80;;
2434;SDS011;1228;51.022;6.764;2023-06-14T14:18:31;2.97;;;2.78;;
2434;SDS011;1228;51.022;6.764;2023-06-14T14:20:57;3.47;;;3.28;;
2434;SDS011;1228;51.022;6.764;2023-06-14T14:23:23;6.32;;;2.40;;
2434;SDS011;1228;51.022;6.764;2023-06-14T14:25:49;7.65;;;3.85;;
2434;SDS011;1228;51.022;6.764;2023-06-14T14:28:15;3.97;;;2.63;;
2434;SDS011;1228;51.022;6.764;2023-06-14T14:30:41;4.63;;;4.32;;
2434;SDS011;1228;51.022;6.764;2023-06-14T14:33:07;4.53;;;4.13;;
2434;SDS011;1228;51.022;6.764;2023-06-14T14:35:40;3.05;;;2.85;;
2434;SDS011;1228;51.022;6.764;2023-06-14T14:38:10;2.65;;;2.55;;
2434;SDS011;1228;51.022;6.764;2023-06-14T14:40:37;3.83;;;3.03;;
2434;SDS011;1228;51.022;6.764;2023-06-14T14:43:03;3.17;;;2.97;;
2434;SDS011;1228;51.022;6.764;2023-06-14T14:45:30;3.13;;;2.92;;
2434;SDS011;1228;51.022;6.764;2023-06-14T14:47:55;2.88;;;2.67;;
2434;SDS011;1228;51.022;6.764;2023-06-14T14:50:21;3.08;;;2.78;;
2434;SDS011;1228;51.022;6.764;2023-06-14T14:52:46;3.25;;;3.05;;
2434;SDS011;1228;51.022;6.764;2023-06-14T14:55:12;4.78;;;3.97;;
2434;SDS011;1228;51.022;6.764;2023-06-14T14:57:38;2.75;;;2.55;;
2434;SDS011;1228;51.022;6.764;2023-06-14T15:00:04;3.22;;;3.03;;
2434;SDS011;1228;51.022;6.764;2023-06-14T15:02:32;3.25;;;2.95;;
2434;SDS011;1228;51.022;6.764;2023-06-14T15:04:57;3.65;;;2.92;;
2434;SDS011;1228;51.022;6.764;2023-06-14T15:07:27;7.28;;;3.20;;
2434;SDS011;1228;51.022;6.764;2023-06-14T15:09:59;3.83;;;3.53;;
2434;SDS011;1228;51.022;6.764;2023-06-14T15:12:25;4.80;;;4.50;;
2434;SDS011;1228;51.022;6.764;2023-06-14T15:14:52;5.18;;;4.75;;
2434;SDS011;1228;51.022;6.764;2023-06-14T15:17:18;4.72;;;3.50;;
2434;SDS011;1228;51.022;6.764;2023-06-14T15:19:47;2.70;;;2.60;;
2434;SDS011;1228;51.022;6.764;2023-06-14T15:22:14;3.17;;;2.97;;
2434;SDS011;1228;51.022;6.764;2023-06-14T15:24:40;3.70;;;3.50;;
2434;SDS011;1228;51.022;6.764;2023-06-14T15:27:08;3.53;;;3.20;;
2434;SDS011;1228;51.022;6.764;2023-06-14T15:29:34;3.92;;;3.63;;
2434;SDS011;1228;51.022;6.764;2023-06-14T15:32:03;3.70;;;3.40;;
2434;SDS011;1228;51.022;6.764;2023-06-14T15:34:32;4.10;;;3.80;;
2434;SDS011;1228;51.022;6.764;2023-06-14T15:36:57;3.70;;;3.50;;